EPLLEPSC

Guest
Details From EPLL - LODZ LUBLINEK
To EPSC - GOLENIOW
Flight Number -
Tags generated
Created
Modified
Stats Distance 198 nm / 367 km
Max Altitude 20,000 ft / 6,096 m
Waypoints 3
Social Downloads 2
Likes 0
Share VATSIM

Download

Looking for another format? Having issues loading an existing format? Contact us
Advertisement - Login to hide

Notes

Basic altitude profile: - Ascent Rate: 2500ft/min - Ascent Speed: 250kts - Cruise Altitude: 35000ft - Cruise Speed: 420kts - Descent Rate: 1500ft/min - Descent Speed: 250kts Options: - Use NATs: no - Use PACOTS: no - Use low airways: no - Use high airways: yes

Route

EPLL IDEXU EPSC

ID Type Via Altitude Latitude Longitude Leg Dist Tot Dist Heading (true) Name
O EPLL APT - 0 ft / 0 m 51.72008˚ 19.39533˚ - 0 nm - LODZ LUBLINEK
IDEXU FIX - 20,000 ft / 6,096 m 52.69722˚ 17.03611˚ 104 nm 104 nm 305° / 303° -
O EPSC APT - 0 ft / 0 m 53.58473˚ 14.90220˚ 93 nm 198 nm 306° / 304° GOLENIOW

Altitude Profile

Advertisement - Login to hide

Weather


0- 5 10 15 20 25 30 35+ Temperature / ° C

Clouds and Precipitation
Forecast for 2018-05-24 00:00 UTC. Updated 3 hours ago

Ground ~20,000 ft ~40,000 ft Winds

EPLL

Details ICAO EPLL (LCJ)
Name LODZ LUBLINEK
Region Poland
Timezone Europe/Warsaw (UTC+2.0)
Stats Elevation 606 ft / 185 m (AMSL)
Location 51.720081° 19.395332°
Runways 2
Magnetic Variation 5.387° E

METAR

EPLL 240230Z 05012KT CAVOK 14/09 Q1024

Decode

TAF

TAF EPLL 232330Z 2400/2424 06009KT CAVOK

Decode

Departure Runways

ID Width Length Bearing (true) Bearing (mag) Surface Threshold Offset Overrun Length
07L 148 ft / 45 m 8,184 ft / 2,495 m 70.76° 65.37° Concrete 0 ft / 0 m 0 ft / 0 m
07R 574 ft / 175 m 2,299 ft / 701 m 70.78° 65.39° Grass 0 ft / 0 m 0 ft / 0 m
25L 574 ft / 175 m 2,299 ft / 701 m 250.78° 245.39° Grass 0 ft / 0 m 0 ft / 0 m
25R 148 ft / 45 m 8,184 ft / 2,495 m 250.79° 245.40° Concrete 0 ft / 0 m 0 ft / 0 m

EPSC

Details ICAO EPSC (SZZ)
Name GOLENIOW
Region Poland
Timezone Europe/Warsaw (UTC+2.0)
Stats Elevation 154 ft / 47 m (AMSL)
Location 53.584731° 14.902195°
Runways 1
Magnetic Variation 4.358° E

METAR

EPSC 240230Z 06006KT CAVOK 11/08 Q1026

Decode

TAF

TAF EPSC 232330Z 2400/2424 07007KT CAVOK PROB40 TEMPO 2409/2417 09015G25KT

Decode

Destination Runways

ID Width Length Bearing (true) Bearing (mag) Surface Threshold Offset Overrun Length
13 197 ft / 60 m 8,187 ft / 2,495 m 130.94° 126.58° Concrete 0 ft / 0 m 0 ft / 0 m
31 197 ft / 60 m 8,187 ft / 2,495 m 310.96° 306.60° Concrete 0 ft / 0 m 0 ft / 0 m

Approach Navaids

Runway Type Ident Frequency Range Bearing (true) Bearing (mag) Slope Elevation
31 Localiser SZC 110.50 MHz 18 nm / 33 km 310.93° 306.58° - 154 ft / 47 m (AMSL)
31 Glidescope SZC 110.50 MHz 10 nm / 19 km 310.95° 306.59° 3.00° 154 ft / 47 m (AMSL)
31 DME SZC 110.50 MHz 18 nm / 33 km - - - 197 ft / 60 m (AMSL)

Popular Alternatives